createdAt,value
2023-05-25T00:00:57.417Z,11.34
2023-05-25T00:01:48.728Z,11.26
2023-05-25T00:02:54.988Z,11.24
2023-05-25T00:04:01.031Z,11.29
2023-05-25T00:05:07.009Z,11.21
2023-05-25T00:06:13.058Z,11.19
2023-05-25T00:07:19.085Z,11.18
2023-05-25T00:08:25.251Z,11.19
2023-05-25T00:09:31.285Z,11.19
2023-05-25T00:10:37.430Z,11.19
2023-05-25T00:11:43.564Z,11.17
2023-05-25T00:12:49.618Z,11.1
2023-05-25T00:13:55.727Z,11.13
2023-05-25T00:15:01.792Z,11.11
2023-05-25T00:16:07.909Z,11.12
2023-05-25T00:18:20.121Z,11.09
2023-05-25T00:19:26.194Z,11.06
2023-05-25T00:21:38.429Z,11.07
2023-05-25T00:22:44.470Z,11.1
2023-05-25T00:24:56.662Z,11
2023-05-25T00:26:02.754Z,10.97
2023-05-25T00:27:08.849Z,10.98
2023-05-25T00:28:14.953Z,10.99
2023-05-25T00:29:20.957Z,10.94
2023-05-25T00:30:27.140Z,10.89
2023-05-25T00:31:33.316Z,10.89
2023-05-25T00:32:39.394Z,10.93
2023-05-25T00:33:45.416Z,10.84
2023-05-25T00:34:51.514Z,10.83
2023-05-25T00:35:57.598Z,10.9
2023-05-25T00:37:03.711Z,10.94
2023-05-25T00:38:09.712Z,10.88
2023-05-25T00:39:15.876Z,10.8
2023-05-25T00:40:21.974Z,10.8
2023-05-25T00:41:28.037Z,10.78
2023-05-25T00:42:34.190Z,10.78
2023-05-25T00:43:40.256Z,10.77
2023-05-25T00:44:46.352Z,10.73
2023-05-25T00:45:52.434Z,10.75
2023-05-25T00:46:58.610Z,10.7
2023-05-25T00:48:04.643Z,10.71
2023-05-25T00:49:10.706Z,10.66
2023-05-25T00:50:16.764Z,10.68
2023-05-25T00:51:22.901Z,10.69
2023-05-25T00:52:28.940Z,10.7
2023-05-25T00:53:35.116Z,10.73
2023-05-25T00:54:41.186Z,10.7
2023-05-25T00:55:47.293Z,10.66
2023-05-25T00:56:53.431Z,10.62
2023-05-25T00:57:59.484Z,10.57
2023-05-25T00:59:05.611Z,10.59
2023-05-25T01:00:11.689Z,10.58
2023-05-25T01:01:17.796Z,10.54
2023-05-25T01:02:23.881Z,10.52
2023-05-25T01:03:30.080Z,10.47
2023-05-25T01:04:36.030Z,10.52
2023-05-25T01:05:42.332Z,10.55
2023-05-25T01:06:48.249Z,10.55
2023-05-25T01:07:54.338Z,10.5
2023-05-25T01:09:00.476Z,10.48
2023-05-25T01:10:06.522Z,10.46
2023-05-25T01:11:12.541Z,10.49
2023-05-25T01:12:18.721Z,10.43
2023-05-25T01:13:24.789Z,10.45
2023-05-25T01:14:30.931Z,10.48
2023-05-25T01:15:36.997Z,10.43
2023-05-25T01:16:43.133Z,10.4
2023-05-25T01:17:49.259Z,10.38
2023-05-25T01:18:55.278Z,10.39
2023-05-25T01:20:10.419Z,10.35
2023-05-25T01:22:13.534Z,10.31
2023-05-25T01:23:19.667Z,10.31
2023-05-25T01:24:25.666Z,10.33
2023-05-25T01:25:31.855Z,10.37
2023-05-25T01:26:37.949Z,10.27
2023-05-25T01:27:44.050Z,10.29
2023-05-25T01:28:50.110Z,10.34
2023-05-25T01:29:56.251Z,10.26
2023-05-25T01:31:02.333Z,10.27
2023-05-25T01:32:08.437Z,10.25
2023-05-25T01:33:14.585Z,10.19
2023-05-25T01:34:20.525Z,10.22
2023-05-25T01:35:26.690Z,10.22
2023-05-25T01:36:32.778Z,10.28
2023-05-25T01:37:38.865Z,10.14
2023-05-25T01:38:44.968Z,10.14
2023-05-25T01:39:51.057Z,10.16
2023-05-25T01:40:57.154Z,10.12
2023-05-25T01:43:09.322Z,10.07
2023-05-25T01:44:15.425Z,10.09
2023-05-25T01:45:21.522Z,10.11
2023-05-25T01:46:27.642Z,10.07
2023-05-25T01:47:33.670Z,10.05
2023-05-25T01:48:39.809Z,10.03
2023-05-25T01:49:45.927Z,9.98
2023-05-25T01:50:51.989Z,9.92
2023-05-25T01:51:58.117Z,9.95
2023-05-25T01:53:04.191Z,10.05
2023-05-25T01:54:10.279Z,10.09
2023-05-25T01:55:16.420Z,10.03
2023-05-25T01:56:22.475Z,10.03
2023-05-25T01:57:28.580Z,9.95
2023-05-25T01:58:34.648Z,9.93
2023-05-25T01:59:40.771Z,9.99
2023-05-25T02:00:46.853Z,9.98
2023-05-25T02:01:53.701Z,9.96
2023-05-25T02:02:59.092Z,9.89
2023-05-25T02:04:05.148Z,9.89
2023-05-25T02:05:11.265Z,9.96
2023-05-25T02:06:17.266Z,9.95
2023-05-25T02:07:23.339Z,9.94
2023-05-25T02:09:35.628Z,9.92
2023-05-25T02:10:41.681Z,9.85
2023-05-25T02:11:47.805Z,9.88
2023-05-25T02:12:53.902Z,9.82
2023-05-25T02:13:59.975Z,9.83
2023-05-25T02:15:06.124Z,9.85
2023-05-25T02:16:12.292Z,9.85
2023-05-25T02:17:18.176Z,9.83
2023-05-25T02:18:24.283Z,9.79
2023-05-25T02:19:30.480Z,9.77
2023-05-25T02:20:36.568Z,9.75
2023-05-25T02:21:42.655Z,9.75
2023-05-25T02:22:48.734Z,9.75
2023-05-25T02:23:54.867Z,9.76
2023-05-25T02:25:00.912Z,9.69
2023-05-25T02:26:07.037Z,9.7
2023-05-25T02:27:13.113Z,9.71
2023-05-25T02:28:19.238Z,9.71
2023-05-25T02:29:25.335Z,9.69
2023-05-25T02:30:31.327Z,9.65
2023-05-25T02:31:37.551Z,9.69
2023-05-25T02:32:43.613Z,9.67
2023-05-25T02:33:49.697Z,9.67
2023-05-25T02:34:55.768Z,9.6
2023-05-25T02:36:01.884Z,9.62
2023-05-25T02:37:07.965Z,9.54
2023-05-25T02:38:14.116Z,9.54
2023-05-25T02:39:20.168Z,9.55
2023-05-25T02:40:26.249Z,9.54
2023-05-25T02:41:32.332Z,9.56
2023-05-25T02:42:38.434Z,9.58
2023-05-25T02:44:50.616Z,9.52
2023-05-25T02:45:56.753Z,9.51
2023-05-25T02:47:03.013Z,9.51
2023-05-25T02:48:08.896Z,9.5
2023-05-25T02:49:15.000Z,9.48
2023-05-25T02:50:21.101Z,9.46
2023-05-25T02:51:27.187Z,9.48
2023-05-25T02:52:33.295Z,9.49
2023-05-25T02:53:39.377Z,9.46
2023-05-25T02:54:51.620Z,9.46
2023-05-25T02:55:57.705Z,9.45
2023-05-25T02:57:03.739Z,9.42
2023-05-25T02:58:09.892Z,9.39
2023-05-25T02:59:15.905Z,9.41
2023-05-25T03:00:22.084Z,9.41
2023-05-25T03:01:28.219Z,9.38
2023-05-25T03:03:40.398Z,9.38
2023-05-25T03:04:46.451Z,9.37
2023-05-25T03:05:52.545Z,9.36
2023-05-25T03:06:58.626Z,9.32
2023-05-25T03:08:04.728Z,9.28
2023-05-25T03:09:10.828Z,9.33
2023-05-25T03:11:22.965Z,9.28
2023-05-25T03:12:29.126Z,9.28
2023-05-25T03:13:35.213Z,9.26
2023-05-25T03:14:41.307Z,9.26
2023-05-25T03:15:47.398Z,9.26
2023-05-25T03:16:54.167Z,9.24
2023-05-25T03:17:59.623Z,9.22
2023-05-25T03:20:11.819Z,9.15
2023-05-25T03:21:24.014Z,9.18
2023-05-25T03:22:36.619Z,9.13
2023-05-25T03:23:49.347Z,9.16
2023-05-25T03:25:02.036Z,9.16
2023-05-25T03:26:14.734Z,9.14
2023-05-25T03:27:33.543Z,9.13
2023-05-25T03:28:39.656Z,9.09
2023-05-25T03:29:45.711Z,9.11
2023-05-25T03:30:51.828Z,9.12
2023-05-25T03:31:57.932Z,9.1
2023-05-25T03:33:04.085Z,9.12
2023-05-25T03:34:10.108Z,9.07
2023-05-25T03:35:16.199Z,9.08
2023-05-25T03:36:22.290Z,9.11
2023-05-25T03:37:28.391Z,9.12
2023-05-25T03:38:34.518Z,9.05
2023-05-25T03:39:40.581Z,9
2023-05-25T03:40:46.646Z,8.98
2023-05-25T03:41:52.759Z,9.03
2023-05-25T03:42:58.851Z,9
2023-05-25T03:44:04.953Z,9.06
2023-05-25T03:45:11.036Z,9.04
2023-05-25T03:46:17.178Z,9.05
2023-05-25T03:47:23.251Z,9.09
2023-05-25T03:48:29.369Z,9.09
2023-05-25T03:49:35.405Z,9.08
2023-05-25T03:50:41.520Z,9.08
2023-05-25T03:51:47.612Z,9.07
2023-05-25T03:52:53.712Z,9.07
2023-05-25T03:55:06.305Z,9.11
2023-05-25T03:56:11.977Z,9.06
2023-05-25T03:57:18.056Z,9.08
2023-05-25T03:58:24.172Z,9.1
2023-05-25T03:59:30.261Z,9.16
2023-05-25T04:00:36.380Z,9.16
2023-05-25T04:01:42.455Z,9.22
2023-05-25T04:02:48.675Z,9.24
2023-05-25T04:03:54.860Z,9.27
2023-05-25T04:05:00.771Z,9.28
2023-05-25T04:06:06.829Z,9.34
2023-05-25T04:07:12.943Z,9.23
2023-05-25T04:08:18.977Z,9.34
2023-05-25T04:09:25.039Z,9.4
2023-05-25T04:10:31.227Z,9.48
2023-05-25T04:11:37.330Z,9.47
2023-05-25T04:12:43.419Z,9.53
2023-05-25T04:16:01.712Z,9.87
2023-05-25T04:17:07.777Z,9.84
2023-05-25T04:18:20.014Z,8.96
2023-05-25T04:19:32.714Z,9.16
2023-05-25T04:20:45.384Z,9.57
2023-05-25T04:21:58.053Z,9.01
2023-05-25T04:23:17.296Z,8.76
2023-05-25T04:24:29.467Z,8.62
2023-05-25T04:25:35.607Z,8.86
2023-05-25T04:27:47.809Z,9.91
2023-05-25T04:28:53.944Z,9.62
2023-05-25T04:29:59.996Z,8.93
2023-05-25T04:31:06.170Z,8.85
2023-05-25T04:32:12.209Z,8.88
2023-05-25T04:33:18.263Z,8.87
2023-05-25T04:34:24.374Z,9.55
2023-05-25T04:35:30.403Z,9.66
2023-05-25T04:36:36.564Z,9.69
2023-05-25T04:37:42.648Z,9.55
2023-05-25T04:38:48.771Z,9.62
2023-05-25T04:41:00.920Z,9.23
2023-05-25T04:42:13.180Z,9.5
2023-05-25T04:43:25.877Z,9.57
2023-05-25T04:44:38.510Z,9.88
2023-05-25T04:45:51.211Z,10.23
2023-05-25T04:47:03.880Z,10.13
2023-05-25T04:48:16.562Z,10.27
2023-05-25T04:49:28.813Z,10.39
2023-05-25T04:50:34.892Z,10.28
2023-05-25T04:52:47.073Z,10.48
2023-05-25T04:53:53.185Z,10.39
2023-05-25T04:54:59.259Z,10.39
2023-05-25T04:56:05.384Z,10.59
2023-05-25T04:57:11.482Z,10.66
2023-05-25T04:58:17.554Z,10.7
2023-05-25T04:59:23.664Z,10.81
2023-05-25T05:00:29.747Z,10.86
2023-05-25T05:01:35.851Z,10.92
2023-05-25T05:02:41.980Z,10.92
2023-05-25T05:03:48.124Z,10.94
2023-05-25T05:04:54.105Z,10.97
2023-05-25T05:07:06.324Z,11.01
2023-05-25T05:08:18.538Z,11
2023-05-25T05:09:31.227Z,11.11
2023-05-25T05:10:44.102Z,11.16
2023-05-25T05:11:56.589Z,11.14
2023-05-25T05:13:09.282Z,11.21
2023-05-25T05:15:27.572Z,11.33
2023-05-25T05:16:33.765Z,11.24
2023-05-25T05:17:39.846Z,10.87
2023-05-25T05:18:45.877Z,11.04
2023-05-25T05:19:51.989Z,11.24
2023-05-25T05:20:58.058Z,11.34
2023-05-25T05:22:04.153Z,11.39
2023-05-25T05:23:10.230Z,11.32
2023-05-25T05:24:16.350Z,11.43
2023-05-25T05:25:22.443Z,11.45
2023-05-25T05:26:28.519Z,11.01
2023-05-25T05:27:34.536Z,11.34
2023-05-25T05:28:40.723Z,11.62
2023-05-25T05:29:46.819Z,11.72
2023-05-25T05:30:52.896Z,11.8
2023-05-25T05:31:59.086Z,11.4
2023-05-25T05:33:05.201Z,11.61
2023-05-25T05:35:17.281Z,11.44
2023-05-25T05:36:23.313Z,11.5
2023-05-25T05:37:29.509Z,11.21
2023-05-25T05:40:47.762Z,11.83
2023-05-25T05:42:00.008Z,11.91
2023-05-25T05:43:12.686Z,11.69
2023-05-25T05:44:28.731Z,11.88
2023-05-25T05:45:37.596Z,12
2023-05-25T05:46:50.289Z,12.16
2023-05-25T05:48:02.948Z,12.16
2023-05-25T05:49:15.639Z,12.18
2023-05-25T05:50:34.485Z,11.93
2023-05-25T05:52:46.697Z,12.16
2023-05-25T05:53:52.732Z,11.82
2023-05-25T05:54:58.832Z,12.15
2023-05-25T05:56:04.833Z,12.39
2023-05-25T05:57:11.061Z,11.95
2023-05-25T05:58:17.118Z,12.23
2023-05-25T05:59:23.234Z,12.34
2023-05-25T06:00:29.346Z,12.38
2023-05-25T06:01:35.420Z,12.4
2023-05-25T06:02:42.146Z,12.41
2023-05-25T06:03:47.651Z,12.61
2023-05-25T06:05:59.720Z,12.75
2023-05-25T06:07:06.084Z,12.82
2023-05-25T06:08:18.140Z,12.67
2023-05-25T06:09:30.855Z,12.55
2023-05-25T06:10:43.451Z,12.62
2023-05-25T06:11:56.170Z,12.87
2023-05-25T06:13:08.808Z,12.99
2023-05-25T06:16:33.866Z,12.9
2023-05-25T06:17:39.924Z,13.06
2023-05-25T06:18:45.962Z,13.22
2023-05-25T06:19:52.119Z,13.27
2023-05-25T06:20:58.195Z,13.25
2023-05-25T06:22:04.276Z,13.33
2023-05-25T06:23:10.340Z,13.4
2023-05-25T06:25:22.542Z,13.43
2023-05-25T06:26:34.830Z,13.48
2023-05-25T06:27:47.474Z,13.35
2023-05-25T06:29:00.163Z,12.96
2023-05-25T06:30:12.859Z,13.17
2023-05-25T06:31:32.079Z,13.43
2023-05-25T06:32:38.187Z,13.66
2023-05-25T06:33:50.424Z,13.7
2023-05-25T06:34:56.516Z,13.32
2023-05-25T06:36:02.529Z,13.59
2023-05-25T06:37:08.610Z,13.82
2023-05-25T06:38:14.818Z,13.75
2023-05-25T06:40:26.996Z,13.85
2023-05-25T06:41:33.085Z,13.91
2023-05-25T06:42:39.181Z,14.05
2023-05-25T06:43:45.276Z,14.14
2023-05-25T06:44:51.376Z,14.06
2023-05-25T06:45:57.544Z,14.04
2023-05-25T06:47:03.567Z,14.11
2023-05-25T06:48:09.724Z,14.13
2023-05-25T06:49:15.750Z,14.19
2023-05-25T06:50:21.827Z,14.22
2023-05-25T06:51:27.903Z,14.26
2023-05-25T06:52:34.039Z,14.43
2023-05-25T06:53:40.095Z,14.54
2023-05-25T06:54:46.266Z,14.53
2023-05-25T06:55:52.292Z,14.61
2023-05-25T06:58:04.497Z,14.71
2023-05-25T06:59:10.582Z,14.7
2023-05-25T07:00:16.710Z,14.73
2023-05-25T07:01:22.781Z,14.71
2023-05-25T07:02:28.910Z,14.84
2023-05-25T07:03:34.993Z,14.91
2023-05-25T07:05:47.170Z,14.94
2023-05-25T07:06:53.273Z,14.98
2023-05-25T07:07:59.329Z,15.06
2023-05-25T07:09:05.453Z,15.08
2023-05-25T07:10:11.561Z,15.14
2023-05-25T07:11:17.628Z,15.13
2023-05-25T07:12:23.633Z,15.16
2023-05-25T07:13:29.751Z,15.25
2023-05-25T07:14:35.911Z,15.28
2023-05-25T07:15:42.085Z,15.31
2023-05-25T07:16:48.226Z,15.39
2023-05-25T07:17:54.249Z,15.4
2023-05-25T07:19:00.705Z,15.48
2023-05-25T07:20:06.521Z,15.48
2023-05-25T07:21:12.512Z,15.53
2023-05-25T07:23:24.686Z,15.52
2023-05-25T07:24:30.758Z,15.66
2023-05-25T07:25:36.863Z,15.69
2023-05-25T07:26:42.990Z,15.67
2023-05-25T07:27:49.042Z,15.76
2023-05-25T07:28:55.136Z,15.82
2023-05-25T07:30:01.325Z,15.77
2023-05-25T07:31:07.279Z,15.92
2023-05-25T07:32:13.352Z,15.99
2023-05-25T07:33:19.549Z,15.5
2023-05-25T07:34:27.703Z,15.43
2023-05-25T07:35:31.629Z,15.82
2023-05-25T07:36:37.807Z,15.87
2023-05-25T07:37:43.881Z,15.96
2023-05-25T07:38:49.980Z,16.09
2023-05-25T07:41:02.173Z,15.97
2023-05-25T07:42:08.307Z,16.18
2023-05-25T07:44:20.494Z,16.23
2023-05-25T07:45:26.483Z,16.37
2023-05-25T07:46:32.702Z,16.43
2023-05-25T07:47:38.770Z,16.35
2023-05-25T07:48:44.828Z,16.47
2023-05-25T07:49:50.940Z,16.58
2023-05-25T07:52:03.107Z,16.3
2023-05-25T07:54:15.380Z,16.21
2023-05-25T07:55:21.326Z,15.85
2023-05-25T07:56:33.633Z,15.84
2023-05-25T07:57:46.345Z,16.36
2023-05-25T07:58:58.986Z,16.57
2023-05-25T08:00:11.593Z,16.56
2023-05-25T08:01:26.773Z,16.85
2023-05-25T08:03:50.287Z,16.4
2023-05-25T08:04:55.491Z,16.7
2023-05-25T08:06:01.444Z,16.72
2023-05-25T08:07:07.531Z,16.79
2023-05-25T08:08:13.640Z,16.74
2023-05-25T08:10:25.736Z,16.58
2023-05-25T08:11:31.834Z,16.88
2023-05-25T08:12:46.893Z,16.79
2023-05-25T08:13:44.096Z,16.93
2023-05-25T08:14:56.338Z,17.02
2023-05-25T08:16:09.031Z,17.22
2023-05-25T08:17:21.693Z,16.97
2023-05-25T08:18:34.365Z,17.09
2023-05-25T08:19:46.970Z,16.76
2023-05-25T08:20:59.726Z,16.82
2023-05-25T08:22:11.904Z,17.13
2023-05-25T08:23:17.991Z,17.23
2023-05-25T08:25:30.248Z,17.26
2023-05-25T08:26:52.964Z,16.48
2023-05-25T08:27:42.449Z,16.87
2023-05-25T08:28:48.528Z,17.02
2023-05-25T08:29:54.620Z,17.05
2023-05-25T08:32:06.804Z,16.89
2023-05-25T08:33:12.967Z,16.45
2023-05-25T08:34:31.706Z,17.04
2023-05-25T08:35:37.832Z,17.06
2023-05-25T08:36:57.087Z,16.54
2023-05-25T08:38:03.088Z,16.75
2023-05-25T08:50:36.104Z,16.82
2023-05-25T08:51:42.252Z,17.15
2023-05-25T08:58:24.913Z,16.94
2023-05-25T08:59:37.574Z,17.23
2023-05-25T09:00:50.208Z,17.36
2023-05-25T09:02:02.989Z,17.34
2023-05-25T09:03:15.701Z,17.5
2023-05-25T09:11:11.008Z,17.07
2023-05-25T09:20:05.953Z,17.62
2023-05-25T09:23:43.932Z,18.1
2023-05-25T09:26:08.857Z,17.11
2023-05-25T09:28:26.231Z,17.64
2023-05-25T09:29:33.270Z,16.7
2023-05-25T09:30:52.960Z,17.34
2023-05-25T09:36:02.544Z,18.02
2023-05-25T09:38:28.130Z,18
2023-05-25T09:39:47.177Z,17.84
2023-05-25T09:40:53.264Z,17.75
2023-05-25T09:43:32.220Z,17.79
2023-05-25T09:48:55.256Z,18.08
2023-05-25T09:50:01.300Z,18.42
2023-05-25T09:57:44.015Z,17.97
2023-05-25T09:58:56.202Z,18.3
2023-05-25T10:00:02.383Z,18.28
2023-05-25T10:01:08.414Z,18.62
2023-05-25T10:02:14.536Z,18.45
2023-05-25T10:03:20.581Z,17.46
2023-05-25T10:04:26.821Z,17.43
2023-05-25T10:05:32.778Z,17.96
2023-05-25T10:06:38.933Z,17.84
2023-05-25T10:07:44.887Z,18.11
2023-05-25T10:08:51.023Z,18.11
2023-05-25T10:09:57.116Z,18.58
2023-05-25T10:11:03.233Z,18.97
2023-05-25T10:12:09.355Z,17.97
2023-05-25T10:13:15.394Z,18.39
2023-05-25T10:15:27.651Z,18.66
2023-05-25T10:16:33.863Z,18.71
2023-05-25T10:17:39.856Z,18.45
2023-05-25T10:18:45.908Z,18.09
2023-05-25T10:19:52.049Z,17.87
2023-05-25T10:23:10.303Z,17.99
2023-05-25T10:24:22.549Z,18.57
2023-05-25T10:25:35.230Z,19.01
2023-05-25T10:26:47.881Z,18.66
2023-05-25T10:28:00.556Z,17.84
2023-05-25T10:29:13.252Z,18.61
2023-05-25T10:30:32.038Z,18.38
2023-05-25T10:31:38.219Z,18.29
2023-05-25T10:33:52.311Z,18.46
2023-05-25T10:34:56.437Z,19.1
2023-05-25T10:36:10.898Z,19.23
2023-05-25T10:37:08.644Z,19.23
2023-05-25T10:38:14.726Z,19.21
2023-05-25T10:39:20.819Z,18.82
2023-05-25T10:40:26.920Z,18.06
2023-05-25T10:41:33.006Z,18.74
2023-05-25T10:42:39.094Z,19.16
2023-05-25T10:43:45.180Z,19.45
2023-05-25T10:44:51.275Z,18.65
2023-05-25T10:45:57.592Z,19.1
2023-05-25T10:47:03.509Z,19.22
2023-05-25T10:48:09.616Z,19.11
2023-05-25T10:49:15.674Z,18.75
2023-05-25T10:50:21.701Z,18.6
2023-05-25T10:52:33.968Z,18.64
2023-05-25T10:53:40.047Z,18.89
2023-05-25T10:55:52.247Z,18.95
2023-05-25T10:57:04.480Z,18.95
2023-05-25T10:58:17.160Z,19.26
2023-05-25T10:59:29.817Z,20.05
2023-05-25T11:00:42.482Z,20.05
2023-05-25T11:01:55.194Z,20.47
2023-05-25T11:03:07.891Z,20.01
2023-05-25T11:04:20.201Z,20.16
2023-05-25T11:05:26.205Z,19.66
2023-05-25T11:06:32.294Z,19.35
2023-05-25T11:08:44.509Z,19.72
2023-05-25T11:09:50.560Z,20.06
2023-05-25T11:10:56.604Z,20.25
2023-05-25T11:12:02.656Z,19.79
2023-05-25T11:13:08.862Z,19.89
2023-05-25T11:14:14.925Z,19.96
2023-05-25T11:15:21.045Z,20.52
2023-05-25T11:16:27.178Z,19.92
2023-05-25T11:18:39.544Z,19.18
2023-05-25T11:19:58.180Z,18.86
2023-05-25T11:21:10.354Z,19.08
2023-05-25T11:22:23.188Z,18.65
2023-05-25T11:23:35.645Z,19.23
2023-05-25T11:24:48.384Z,19.18
2023-05-25T11:26:01.085Z,19.17
2023-05-25T11:27:13.877Z,18.97
2023-05-25T11:28:20.013Z,19.17
2023-05-25T11:29:26.072Z,19.3
2023-05-25T11:31:43.406Z,19.08
2023-05-25T11:32:44.400Z,18.69
2023-05-25T11:33:50.444Z,19.02
2023-05-25T11:34:56.546Z,19.04
2023-05-25T11:37:10.327Z,19
2023-05-25T11:38:14.800Z,19.13
2023-05-25T11:39:34.228Z,19.69
2023-05-25T11:40:40.659Z,19.45
2023-05-25T11:41:52.878Z,18.87
2023-05-25T11:43:05.640Z,18.85
2023-05-25T11:44:18.314Z,19.2
2023-05-25T11:45:37.224Z,19.07
2023-05-25T11:46:43.367Z,19.75
2023-05-25T11:47:49.411Z,19.94
2023-05-25T11:49:01.613Z,19.72
2023-05-25T11:50:20.846Z,19.32
2023-05-25T11:51:40.097Z,19.53
2023-05-25T11:53:05.841Z,19.15
2023-05-25T11:54:24.748Z,18.78
2023-05-25T11:55:37.439Z,18.26
2023-05-25T11:56:50.125Z,17.94
2023-05-25T11:58:09.378Z,18.14
2023-05-25T11:59:15.426Z,18.3
2023-05-25T12:00:28.129Z,18.56
2023-05-25T12:01:40.737Z,18.12
2023-05-25T12:06:17.812Z,18.65
2023-05-25T12:08:30.067Z,19.17
2023-05-25T12:11:48.359Z,18.9
2023-05-25T12:15:06.651Z,18.47
2023-05-25T12:17:18.904Z,19.17
2023-05-25T12:18:25.005Z,19.34
2023-05-25T12:21:43.279Z,19.02
2023-05-25T12:23:55.423Z,18.89
2023-05-25T12:26:07.628Z,19.44
2023-05-25T12:27:20.448Z,19.46
2023-05-25T12:28:39.686Z,19.84
2023-05-25T12:31:18.173Z,19.92
2023-05-25T12:32:37.492Z,20.16
2023-05-25T12:33:56.685Z,19.31
2023-05-25T12:35:22.499Z,18.83
2023-05-25T12:36:41.700Z,18.81
2023-05-25T12:37:54.457Z,19.07
2023-05-25T12:39:13.738Z,19.04
2023-05-25T12:40:32.952Z,19.59
2023-05-25T12:41:54.489Z,19.73
2023-05-25T12:43:11.410Z,19.48
2023-05-25T12:44:30.298Z,19.59
2023-05-25T12:45:43.215Z,19.24
2023-05-25T12:46:55.668Z,19.65
2023-05-25T12:48:08.375Z,19.64
2023-05-25T12:49:20.974Z,19.51
2023-05-25T12:51:45.967Z,20.62
2023-05-25T12:52:51.979Z,20.46
2023-05-25T12:53:58.112Z,20.19
2023-05-25T12:55:04.175Z,20.27
2023-05-25T12:56:10.290Z,20.13
2023-05-25T12:57:16.375Z,19.89
2023-05-25T12:58:22.458Z,20.06
2023-05-25T12:59:28.567Z,20.32
2023-05-25T13:00:34.699Z,20.5
2023-05-25T13:01:40.806Z,20.45
2023-05-25T13:04:59.109Z,19.7
2023-05-25T13:06:05.118Z,19.66
2023-05-25T13:07:17.377Z,20.12
2023-05-25T13:08:30.058Z,20.03
2023-05-25T13:11:01.944Z,19.39
2023-05-25T13:12:14.635Z,19.63
2023-05-25T13:13:27.334Z,19.45
2023-05-25T13:14:33.433Z,19.32
2023-05-25T13:15:46.102Z,19.62
2023-05-25T13:17:18.084Z,19.85
2023-05-25T13:18:24.178Z,19.89
2023-05-25T13:19:49.513Z,20.32
2023-05-25T13:21:02.414Z,20.27
2023-05-25T13:22:21.444Z,19.98
2023-05-25T13:23:40.786Z,19.92
2023-05-25T13:25:00.059Z,19.46
2023-05-25T13:26:18.866Z,20.43
2023-05-25T13:27:31.509Z,20.4
2023-05-25T13:28:44.256Z,20
2023-05-25T13:29:56.973Z,20.95
2023-05-25T13:31:09.688Z,20.53
2023-05-25T13:32:22.397Z,20.8
2023-05-25T13:34:47.692Z,21.03
2023-05-25T13:35:59.877Z,20.54
2023-05-25T13:37:19.167Z,20.97
2023-05-25T13:38:38.457Z,20.37
2023-05-25T13:39:57.714Z,20.22
2023-05-25T13:41:09.835Z,20.27
2023-05-25T13:42:22.648Z,19.8
2023-05-25T13:43:35.277Z,19.95
2023-05-25T13:44:47.945Z,20.81
2023-05-25T13:46:00.620Z,20.94
2023-05-25T13:47:12.906Z,20.29
2023-05-25T13:48:18.943Z,20.57
2023-05-25T13:49:26.351Z,20.74
2023-05-25T13:50:31.069Z,20.52
2023-05-25T13:51:37.270Z,20.81
2023-05-25T13:52:43.352Z,20.12
2023-05-25T13:54:55.517Z,20.1
2023-05-25T13:56:01.640Z,20.14
2023-05-25T13:57:07.710Z,20.65
2023-05-25T13:59:19.897Z,20.11
2023-05-25T14:00:38.742Z,19.94
2023-05-25T14:01:44.848Z,19.8
2023-05-25T14:02:57.581Z,20.19
2023-05-25T14:04:10.241Z,20.13
2023-05-25T14:05:22.768Z,20.66
2023-05-25T14:06:41.663Z,21.13
2023-05-25T14:10:00.452Z,20.47
2023-05-25T14:11:06.102Z,20.21
2023-05-25T14:12:14.166Z,20.98
2023-05-25T14:15:30.417Z,20.82
2023-05-25T14:16:36.774Z,20.79
2023-05-25T14:17:42.572Z,20.18
2023-05-25T14:18:48.704Z,20.21
2023-05-25T14:21:00.879Z,19.54
2023-05-25T14:23:15.773Z,20
2023-05-25T14:24:19.185Z,19.95
2023-05-25T14:25:25.256Z,19.92
2023-05-25T14:26:31.396Z,19.59
2023-05-25T14:27:50.738Z,20.27
2023-05-25T14:29:03.346Z,20.31
2023-05-25T14:30:22.676Z,20.79
2023-05-25T14:31:41.946Z,21.08
2023-05-25T14:33:07.964Z,20.51
2023-05-25T14:34:27.168Z,20.61
2023-05-25T14:35:39.825Z,20.2
2023-05-25T14:36:52.501Z,20.15
2023-05-25T14:39:17.842Z,20.5
2023-05-25T14:41:49.773Z,19.95
2023-05-25T14:43:02.422Z,20.44
2023-05-25T14:44:15.088Z,20.31
2023-05-25T14:45:27.387Z,20.84
2023-05-25T14:46:46.697Z,20.13
2023-05-25T14:48:16.155Z,20.35
2023-05-25T14:49:38.246Z,20.65
2023-05-25T14:50:44.655Z,20.37
2023-05-25T14:52:03.707Z,20.65
2023-05-25T14:53:22.922Z,21.06
2023-05-25T14:54:42.191Z,20.81
2023-05-25T14:55:54.418Z,21.07
2023-05-25T14:57:07.096Z,20.88
2023-05-25T14:58:26.346Z,20.48
2023-05-25T14:59:32.437Z,20.73
2023-05-25T15:00:45.124Z,21.23
2023-05-25T15:01:57.874Z,21.03
2023-05-25T15:03:10.220Z,21.12
2023-05-25T15:05:22.228Z,20.89
2023-05-25T15:06:28.314Z,20.74
2023-05-25T15:08:40.521Z,21.3
2023-05-25T15:09:46.617Z,21.52
2023-05-25T15:10:52.745Z,21.62
2023-05-25T15:13:04.798Z,21.68
2023-05-25T15:14:10.901Z,21.04
2023-05-25T15:16:23.249Z,21.07
2023-05-25T15:17:42.024Z,20.99
2023-05-25T15:18:48.079Z,21.25
2023-05-25T15:20:00.834Z,21.34
2023-05-25T15:21:20.065Z,21.46
2023-05-25T15:22:32.759Z,21.61
2023-05-25T15:23:38.797Z,21.3
2023-05-25T15:24:58.754Z,21.3
2023-05-25T15:27:16.370Z,21.39
2023-05-25T15:28:22.483Z,21.7
2023-05-25T15:29:28.548Z,21.76
2023-05-25T15:31:40.707Z,20.99
2023-05-25T15:32:46.890Z,20.74
2023-05-25T15:33:58.159Z,21.27
2023-05-25T15:34:59.046Z,21.49
2023-05-25T15:36:05.055Z,21.47
2023-05-25T15:37:12.995Z,21.41
2023-05-25T15:39:23.423Z,20.72
2023-05-25T15:40:35.680Z,20.62
2023-05-25T15:41:48.265Z,20.63
2023-05-25T15:43:01.014Z,20.85
2023-05-25T15:44:13.600Z,20.62
2023-05-25T15:45:26.510Z,20.82
2023-05-25T15:46:39.052Z,21.03
2023-05-25T15:47:51.295Z,21.24
2023-05-25T15:48:57.377Z,21.59
2023-05-25T15:50:03.437Z,21.37
2023-05-25T15:52:16.164Z,20.39
2023-05-25T15:53:21.775Z,20.63
2023-05-25T15:54:27.751Z,20.69
2023-05-25T15:55:33.941Z,20.82
2023-05-25T15:56:40.064Z,21.15
2023-05-25T15:57:46.126Z,20.54
2023-05-25T15:58:52.218Z,20.58
2023-05-25T15:59:58.318Z,20.6
2023-05-25T16:01:04.458Z,20.78
2023-05-25T16:02:10.599Z,20.27
2023-05-25T16:03:16.645Z,20.75
2023-05-25T16:04:22.719Z,20.87
2023-05-25T16:06:34.902Z,21
2023-05-25T16:08:47.074Z,21.45
2023-05-25T16:09:59.320Z,21.41
2023-05-25T16:11:11.974Z,21.46
2023-05-25T16:12:24.946Z,21.11
2023-05-25T16:13:37.354Z,20.81
2023-05-25T16:14:50.028Z,21.04
2023-05-25T16:17:15.013Z,21.05
2023-05-25T16:18:21.005Z,20.69
2023-05-25T16:20:33.292Z,20.48
2023-05-25T16:21:39.301Z,20.7
2023-05-25T16:22:45.395Z,20.58
2023-05-25T16:23:51.473Z,20.87
2023-05-25T16:24:57.489Z,20.49
2023-05-25T16:26:03.622Z,20.74
2023-05-25T16:27:09.806Z,20.42
2023-05-25T16:28:15.866Z,19.95
2023-05-25T16:31:34.212Z,20.17
2023-05-25T16:32:46.412Z,20.47
2023-05-25T16:33:59.052Z,20.46
2023-05-25T16:37:37.097Z,20.18
2023-05-25T16:38:56.370Z,19.89
2023-05-25T16:40:02.474Z,20.38
2023-05-25T16:41:15.112Z,20.23
2023-05-25T16:42:27.921Z,20.58
2023-05-25T16:43:53.763Z,20.3
2023-05-25T16:45:06.444Z,19.93
2023-05-25T16:46:25.750Z,20.3
2023-05-25T16:47:44.591Z,20.31
2023-05-25T16:49:03.789Z,20.31
2023-05-25T16:50:09.898Z,20.21
2023-05-25T16:51:29.171Z,19.7
2023-05-25T16:52:35.273Z,20.1
2023-05-25T16:53:47.811Z,19.81
2023-05-25T16:55:00.589Z,19.54
2023-05-25T16:56:13.269Z,20.04
2023-05-25T16:57:32.563Z,20.3
2023-05-25T16:59:53.578Z,20.27
2023-05-25T17:01:03.961Z,19.54
2023-05-25T17:02:16.208Z,20.24
2023-05-25T17:03:28.955Z,20.13
2023-05-25T17:04:41.027Z,19.82
2023-05-25T17:05:53.966Z,20.28
2023-05-25T17:07:12.645Z,20.41
2023-05-25T17:08:31.887Z,20.4
2023-05-25T17:09:57.786Z,20.39
2023-05-25T17:11:10.516Z,20.06
2023-05-25T17:12:23.100Z,19.98
2023-05-25T17:13:42.372Z,19.74
2023-05-25T17:14:48.555Z,20.18
2023-05-25T17:16:07.298Z,19.81
2023-05-25T17:17:13.479Z,20.04
2023-05-25T17:18:19.533Z,20.19
2023-05-25T17:19:25.665Z,19.89
2023-05-25T17:20:31.827Z,19.71
2023-05-25T17:21:37.845Z,19.66
2023-05-25T17:22:43.918Z,19.48
2023-05-25T17:23:50.046Z,19.6
2023-05-25T17:24:56.130Z,19.44
2023-05-25T17:26:02.239Z,19.62
2023-05-25T17:28:14.337Z,19.32
2023-05-25T17:29:20.491Z,19.85
2023-05-25T17:30:26.602Z,19.48
2023-05-25T17:32:38.841Z,19.88
2023-05-25T17:33:57.593Z,19.56
2023-05-25T17:35:03.696Z,19.52